Time;durP1;ratioP1;P1;durP2;ratioP2;P2;SDS_P1;SDS_P2;PMS_P1;PMS_P2;Temp;Humidity;BMP_temperature;BMP_pressure;BME280_temperature;BME280_humidity;BME280_pressure;Samples;Min_cycle;Max_cycle;Signal;HPM_P1;HPM_P2
2022/02/18 00:00:50;;;;;;;3.56;1.95;;;;;;;;;;364235;147;857581;-58
2022/02/18 00:01:51;;;;;;;4.29;2.08;;;;;;;;;;364545;147;857041;-58
2022/02/18 00:02:53;;;;;;;3.11;2.04;;;;;;;;;;363014;146;863666;-58
2022/02/18 00:03:55;;;;;;;4.95;2.36;;;;;;;;;;363397;146;863703;-58
2022/02/18 00:04:57;;;;;;;4.96;2.40;;;;;;;;;;363129;147;863668;-58
2022/02/18 00:05:59;;;;;;;3.76;1.99;;;;;;;;;;363450;146;856204;-58
2022/02/18 00:07:00;;;;;;;3.50;2.27;;;;;;;;;;362966;146;856868;-58
2022/02/18 00:08:02;;;;;;;5.71;1.86;;;;;;;;;;363810;147;863960;-58
2022/02/18 00:09:04;;;;;;;4.21;2.40;;;;;;;;;;364990;147;863739;-58
2022/02/18 00:10:05;;;;;;;4.19;2.19;;;;;;;;;;362266;146;856194;-58
2022/02/18 00:11:07;;;;;;;7.84;3.19;;;;;;;;;;363683;146;864442;-58
2022/02/18 00:12:10;;;;;;;5.63;2.56;;;;;;;;;;361722;147;863600;-57
2022/02/18 00:13:12;;;;;;;4.83;2.71;;;;;;;;;;362053;146;863591;-57
2022/02/18 00:14:14;;;;;;;4.35;2.45;;;;;;;;;;364622;147;856102;-58
2022/02/18 00:15:15;;;;;;;6.89;2.64;;;;;;;;;;361355;147;856435;-58
2022/02/18 00:16:18;;;;;;;5.13;2.59;;;;;;;;;;362704;147;856166;-58
2022/02/18 00:17:20;;;;;;;4.88;2.03;;;;;;;;;;362400;146;856087;-58
2022/02/18 00:18:21;;;;;;;6.39;2.26;;;;;;;;;;364338;147;856379;-58
2022/02/18 00:19:23;;;;;;;4.53;2.40;;;;;;;;;;363896;147;856468;-58
2022/02/18 00:20:25;;;;;;;5.41;2.46;;;;;;;;;;362258;146;858792;-58
2022/02/18 00:21:26;;;;;;;4.40;2.34;;;;;;;;;;363572;146;856621;-58
2022/02/18 00:22:28;;;;;;;4.04;2.01;;;;;;;;;;363176;147;863822;-58
2022/02/18 00:23:29;;;;;;;3.69;2.04;;;;;;;;;;362958;146;856371;-57
2022/02/18 00:24:31;;;;;;;3.61;2.02;;;;;;;;;;362625;146;856687;-59
2022/02/18 00:25:34;;;;;;;2.94;1.95;;;;;;;;;;364222;147;856408;-58
2022/02/18 00:26:36;;;;;;;5.84;2.56;;;;;;;;;;362270;147;856421;-57
2022/02/18 00:27:38;;;;;;;3.22;2.32;;;;;;;;;;363363;146;856104;-58
2022/02/18 00:28:39;;;;;;;4.57;2.37;;;;;;;;;;361651;147;856072;-58
2022/02/18 00:29:41;;;;;;;3.57;2.46;;;;;;;;;;363318;147;856031;-58
2022/02/18 00:30:43;;;;;;;5.80;2.48;;;;;;;;;;363108;146;863732;-58
2022/02/18 00:31:44;;;;;;;3.58;2.41;;;;;;;;;;363318;146;863626;-58
2022/02/18 00:32:46;;;;;;;5.05;2.25;;;;;;;;;;362408;147;863501;-58
2022/02/18 00:33:47;;;;;;;5.69;2.61;;;;;;;;;;360807;147;858624;-58
2022/02/18 00:34:49;;;;;;;4.79;2.44;;;;;;;;;;362912;146;863721;-57
2022/02/18 00:35:50;;;;;;;3.36;2.00;;;;;;;;;;363660;147;856423;-58
2022/02/18 00:36:52;;;;;;;4.46;2.39;;;;;;;;;;360667;147;858660;-56
2022/02/18 00:37:56;;;;;;;3.56;2.39;;;;;;;;;;362927;146;863784;-58
2022/02/18 00:38:58;;;;;;;3.84;2.25;;;;;;;;;;361602;146;863729;-58
2022/02/18 00:39:59;;;;;;;4.81;2.71;;;;;;;;;;364764;147;857310;-57
2022/02/18 00:41:01;;;;;;;4.30;2.28;;;;;;;;;;362322;147;863891;-59
2022/02/18 00:42:03;;;;;;;3.84;2.26;;;;;;;;;;362727;146;863857;-60
2022/02/18 00:43:04;;;;;;;4.17;2.66;;;;;;;;;;364014;147;863803;-61
2022/02/18 00:44:06;;;;;;;5.56;2.35;;;;;;;;;;364058;147;863734;-58
2022/02/18 00:45:08;;;;;;;5.18;2.27;;;;;;;;;;364412;146;856461;-58
2022/02/18 00:46:11;;;;;;;4.44;2.21;;;;;;;;;;361633;147;856309;-58
2022/02/18 00:47:13;;;;;;;5.09;2.59;;;;;;;;;;362727;147;863772;-58
2022/02/18 00:48:14;;;;;;;4.51;2.60;;;;;;;;;;363872;146;862027;-58
2022/02/18 00:49:16;;;;;;;4.66;2.44;;;;;;;;;;363198;146;863640;-58
2022/02/18 00:50:19;;;;;;;4.21;2.55;;;;;;;;;;364921;147;863745;-58
2022/02/18 00:51:20;;;;;;;5.15;2.17;;;;;;;;;;362734;147;855996;-58
2022/02/18 00:52:22;;;;;;;3.56;2.48;;;;;;;;;;363195;146;856060;-59
2022/02/18 00:53:23;;;;;;;4.36;2.47;;;;;;;;;;362620;147;863611;-58
2022/02/18 00:54:25;;;;;;;4.69;2.27;;;;;;;;;;364391;147;860251;-56
2022/02/18 00:55:26;;;;;;;3.99;2.81;;;;;;;;;;363295;146;863589;-58
2022/02/18 00:56:28;;;;;;;4.12;2.71;;;;;;;;;;363423;146;857248;-58
2022/02/18 00:57:29;;;;;;;4.34;2.27;;;;;;;;;;362975;147;864410;-58
2022/02/18 00:58:31;;;;;;;3.64;2.38;;;;;;;;;;363400;147;864923;-58
2022/02/18 00:59:32;;;;;;;7.11;2.84;;;;;;;;;;363096;146;856185;-58
2022/02/18 01:00:34;;;;;;;4.02;2.59;;;;;;;;;;362882;147;856922;-58
2022/02/18 01:01:36;;;;;;;4.31;2.70;;;;;;;;;;361549;147;863597;-59
2022/02/18 01:02:37;;;;;;;3.96;2.64;;;;;;;;;;363801;146;864280;-58
2022/02/18 01:03:39;;;;;;;3.54;2.30;;;;;;;;;;363534;146;864181;-58
2022/02/18 01:04:40;;;;;;;3.94;2.51;;;;;;;;;;362410;147;864326;-58
2022/02/18 01:05:42;;;;;;;4.41;2.64;;;;;;;;;;361169;147;864355;-58
2022/02/18 01:06:44;;;;;;;3.51;2.37;;;;;;;;;;363673;146;856835;-58
2022/02/18 01:07:45;;;;;;;3.73;2.26;;;;;;;;;;361584;147;856222;-58
2022/02/18 01:08:47;;;;;;;6.01;2.36;;;;;;;;;;360470;147;857317;-58
2022/02/18 01:09:48;;;;;;;3.76;1.91;;;;;;;;;;351152;150;857103;-58
2022/02/18 01:10:50;;;;;;;2.88;1.78;;;;;;;;;;352572;151;858343;-58
2022/02/18 01:11:51;;;;;;;5.74;2.09;;;;;;;;;;364039;146;856800;-58
2022/02/18 01:12:54;;;;;;;4.98;2.54;;;;;;;;;;363853;146;863619;-58
2022/02/18 01:13:56;;;;;;;4.37;3.49;;;;;;;;;;363217;147;863641;-58
2022/02/18 01:14:57;;;;;;;4.33;2.49;;;;;;;;;;364225;147;856239;-58
2022/02/18 01:15:59;;;;;;;4.26;2.11;;;;;;;;;;360670;147;863829;-58
2022/02/18 01:17:00;;;;;;;6.23;2.12;;;;;;;;;;363390;146;856154;-58
2022/02/18 01:18:04;;;;;;;4.37;2.06;;;;;;;;;;363428;147;864027;-58
2022/02/18 01:19:05;;;;;;;4.62;2.32;;;;;;;;;;360129;147;863923;-58
2022/02/18 01:20:08;;;;;;;3.21;1.85;;;;;;;;;;363331;147;856181;-58
2022/02/18 01:21:09;;;;;;;4.21;2.23;;;;;;;;;;362677;147;856032;-58
2022/02/18 01:22:11;;;;;;;5.24;2.25;;;;;;;;;;363545;147;856407;-58
2022/02/18 01:23:12;;;;;;;5.94;2.41;;;;;;;;;;361905;147;863774;-58
2022/02/18 01:24:14;;;;;;;6.34;2.38;;;;;;;;;;364121;146;863730;-58
2022/02/18 01:25:15;;;;;;;4.19;2.04;;;;;;;;;;363594;147;856223;-58
2022/02/18 01:26:17;;;;;;;2.30;1.61;;;;;;;;;;361894;147;863606;-58
2022/02/18 01:27:19;;;;;;;4.40;1.95;;;;;;;;;;363847;146;856082;-58
2022/02/18 01:28:21;;;;;;;3.36;2.12;;;;;;;;;;362305;147;856150;-58
2022/02/18 01:29:22;;;;;;;2.81;1.91;;;;;;;;;;364191;147;856702;-59
2022/02/18 01:42:10;;;;;;;3.01;1.05;;;;;;;;;;371103;144;869481;-58
2022/02/18 01:43:12;;;;;;;2.42;1.06;;;;;;;;;;362547;147;858727;-58
2022/02/18 01:44:16;;;;;;;1.69;1.19;;;;;;;;;;371675;143;864876;-58
2022/02/18 01:45:17;;;;;;;1.27;1.02;;;;;;;;;;371215;144;858813;-58
2022/02/18 01:46:20;;;;;;;2.03;1.09;;;;;;;;;;370486;144;863647;-58
2022/02/18 01:47:22;;;;;;;1.40;0.86;;;;;;;;;;369849;144;856259;-59
2022/02/18 01:48:24;;;;;;;2.02;1.13;;;;;;;;;;371065;143;863790;-57
2022/02/18 01:49:26;;;;;;;2.26;1.01;;;;;;;;;;372328;144;856085;-58
2022/02/18 01:50:27;;;;;;;2.35;0.91;;;;;;;;;;370140;144;864342;-59
2022/02/18 01:51:29;;;;;;;1.77;0.98;;;;;;;;;;369783;144;856404;-59
2022/02/18 01:52:35;;;;;;;4.58;1.11;;;;;;;;;;369943;143;863970;-59
2022/02/18 01:53:37;;;;;;;1.08;0.84;;;;;;;;;;364134;145;857828;-59
2022/02/18 01:54:39;;;;;;;1.93;0.90;;;;;;;;;;366565;143;856857;-59
2022/02/18 01:55:40;;;;;;;1.56;1.14;;;;;;;;;;365760;144;863762;-59
2022/02/18 01:56:42;;;;;;;2.49;0.88;;;;;;;;;;367357;145;856133;-58
2022/02/18 01:57:51;;;;;;;2.17;1.14;;;;;;;;;;365337;144;863728;-58
2022/02/18 01:58:53;;;;;;;1.83;1.06;;;;;;;;;;367488;143;856266;-59
2022/02/18 01:59:54;;;;;;;1.61;1.01;;;;;;;;;;367634;145;856529;-59
2022/02/18 02:00:56;;;;;;;1.87;0.98;;;;;;;;;;362246;145;863650;-59
2022/02/18 02:02:01;;;;;;;2.85;1.21;;;;;;;;;;367528;143;862520;-60
2022/02/18 02:03:03;;;;;;;1.76;0.96;;;;;;;;;;360564;145;857253;-59
2022/02/18 02:04:06;;;;;;;1.06;0.96;;;;;;;;;;362521;145;856217;-59
2022/02/18 02:05:07;;;;;;;3.01;1.34;;;;;;;;;;367489;143;856943;-59
2022/02/18 02:06:10;;;;;;;0.95;0.85;;;;;;;;;;369361;144;856554;-59
2022/02/18 02:07:11;;;;;;;1.06;0.91;;;;;;;;;;369306;144;856625;-59
2022/02/18 02:08:13;;;;;;;1.07;0.81;;;;;;;;;;359795;147;856762;-59
2022/02/18 02:09:15;;;;;;;3.54;1.26;;;;;;;;;;366605;143;863725;-59
2022/02/18 02:10:16;;;;;;;1.53;1.11;;;;;;;;;;362082;147;863821;-59
2022/02/18 02:11:18;;;;;;;1.82;0.97;;;;;;;;;;368424;144;863742;-58
2022/02/18 02:12:20;;;;;;;2.64;1.14;;;;;;;;;;367225;143;863819;-58
2022/02/18 02:13:29;;;;;;;1.46;0.97;;;;;;;;;;370183;143;864257;-59
2022/02/18 02:14:31;;;;;;;1.67;1.08;;;;;;;;;;367986;144;863736;-58
2022/02/18 02:15:32;;;;;;;1.11;0.72;;;;;;;;;;368726;143;856682;-58
2022/02/18 02:16:34;;;;;;;3.40;1.06;;;;;;;;;;367025;143;864212;-59
2022/02/18 02:17:35;;;;;;;1.02;0.91;;;;;;;;;;368242;145;863672;-59
2022/02/18 02:18:37;;;;;;;1.36;1.03;;;;;;;;;;368037;143;856128;-59
2022/02/18 02:19:39;;;;;;;2.36;1.16;;;;;;;;;;369085;144;856645;-59
2022/02/18 02:20:40;;;;;;;2.59;1.42;;;;;;;;;;370068;144;863732;-59
2022/02/18 02:21:52;;;;;;;1.27;0.91;;;;;;;;;;365120;145;863429;-59
2022/02/18 02:22:54;;;;;;;1.31;0.99;;;;;;;;;;366602;143;863640;-59
2022/02/18 02:23:55;;;;;;;1.37;0.89;;;;;;;;;;367098;143;856379;-59
2022/02/18 02:24:57;;;;;;;0.86;0.83;;;;;;;;;;365056;145;856093;-59
2022/02/18 02:25:59;;;;;;;1.25;0.90;;;;;;;;;;369299;143;858063;-58
2022/02/18 02:27:00;;;;;;;1.30;1.13;;;;;;;;;;368772;144;856566;-59
2022/02/18 02:28:02;;;;;;;1.64;0.92;;;;;;;;;;368132;143;856976;-60
2022/02/18 02:29:04;;;;;;;1.65;1.02;;;;;;;;;;368910;144;856774;-59
2022/02/18 02:30:08;;;;;;;1.31;1.04;;;;;;;;;;367470;143;857464;-59
2022/02/18 02:31:10;;;;;;;1.94;0.98;;;;;;;;;;366658;144;857170;-59
2022/02/18 02:32:12;;;;;;;0.79;0.79;;;;;;;;;;365967;145;859226;-59
2022/02/18 02:33:13;;;;;;;2.34;1.77;;;;;;;;;;366430;143;861143;-59
2022/02/18 02:34:15;;;;;;;1.25;0.90;;;;;;;;;;367983;144;856329;-59
2022/02/18 02:35:16;;;;;;;2.22;1.19;;;;;;;;;;367498;145;856534;-59
2022/02/18 02:36:20;;;;;;;1.04;0.73;;;;;;;;;;358308;147;863814;-59
2022/02/18 02:37:22;;;;;;;1.38;0.95;;;;;;;;;;366924;144;856508;-59
2022/02/18 02:38:24;;;;;;;0.92;0.74;;;;;;;;;;369299;143;856051;-59
2022/02/18 02:39:25;;;;;;;0.76;0.76;;;;;;;;;;365805;145;856425;-59
2022/02/18 02:40:27;;;;;;;2.09;1.23;;;;;;;;;;366733;144;856091;-59
2022/02/18 02:41:29;;;;;;;1.30;0.80;;;;;;;;;;368868;144;856664;-59
2022/02/18 02:42:31;;;;;;;1.71;0.96;;;;;;;;;;363941;145;856426;-60
2022/02/18 02:43:32;;;;;;;0.94;0.80;;;;;;;;;;362007;145;857056;-59
2022/02/18 02:44:34;;;;;;;0.70;0.69;;;;;;;;;;362712;146;856515;-58
2022/02/18 02:45:36;;;;;;;5.35;2.40;;;;;;;;;;366432;145;856665;-59
2022/02/18 02:46:37;;;;;;;4.48;1.82;;;;;;;;;;365555;145;856539;-59
2022/02/18 02:47:39;;;;;;;1.60;0.88;;;;;;;;;;362981;146;856198;-58
2022/02/18 02:48:41;;;;;;;2.50;1.34;;;;;;;;;;360725;145;856174;-59
2022/02/18 02:49:42;;;;;;;1.13;0.76;;;;;;;;;;362669;146;863712;-59
2022/02/18 02:50:44;;;;;;;1.06;0.90;;;;;;;;;;361376;145;863632;-59
2022/02/18 02:51:45;;;;;;;1.27;1.07;;;;;;;;;;363815;145;864057;-59
2022/02/18 02:52:48;;;;;;;2.05;1.35;;;;;;;;;;362227;145;863679;-58
2022/02/18 02:53:49;;;;;;;1.29;0.95;;;;;;;;;;365400;145;855986;-58
2022/02/18 02:54:51;;;;;;;3.97;1.09;;;;;;;;;;363016;146;856081;-59
2022/02/18 02:55:52;;;;;;;1.94;1.04;;;;;;;;;;361266;147;857310;-58
2022/02/18 02:56:56;;;;;;;1.24;0.86;;;;;;;;;;359276;145;856748;-58
2022/02/18 02:57:57;;;;;;;1.84;1.26;;;;;;;;;;364213;145;856263;-58
2022/02/18 02:59:00;;;;;;;1.89;1.31;;;;;;;;;;363312;145;856173;-59
2022/02/18 03:00:01;;;;;;;2.07;1.01;;;;;;;;;;361975;147;864002;-59
2022/02/18 03:01:04;;;;;;;1.76;1.21;;;;;;;;;;362093;145;856315;-59
2022/02/18 03:02:05;;;;;;;2.53;1.17;;;;;;;;;;364025;145;863743;-59
2022/02/18 03:03:07;;;;;;;2.75;1.59;;;;;;;;;;364270;145;856635;-59
2022/02/18 03:04:09;;;;;;;2.18;1.49;;;;;;;;;;363728;145;856181;-58
2022/02/18 03:05:10;;;;;;;2.04;1.43;;;;;;;;;;362864;145;864095;-59
2022/02/18 03:06:13;;;;;;;0.96;0.89;;;;;;;;;;365138;145;856259;-58
2022/02/18 03:07:14;;;;;;;2.30;1.92;;;;;;;;;;366492;145;863681;-59
2022/02/18 03:08:16;;;;;;;1.63;1.09;;;;;;;;;;363448;145;863849;-59
2022/02/18 03:09:17;;;;;;;1.85;1.28;;;;;;;;;;362541;146;863645;-59
2022/02/18 03:10:19;;;;;;;1.10;0.91;;;;;;;;;;363500;145;856539;-59
2022/02/18 03:11:22;;;;;;;1.45;1.21;;;;;;;;;;364901;145;863683;-59
2022/02/18 03:12:24;;;;;;;1.58;1.14;;;;;;;;;;361901;145;856077;-59
2022/02/18 03:13:25;;;;;;;2.51;1.29;;;;;;;;;;362666;145;856308;-59
2022/02/18 03:14:27;;;;;;;0.97;0.87;;;;;;;;;;361836;145;856069;-59
2022/02/18 03:15:29;;;;;;;1.82;0.92;;;;;;;;;;363922;145;864828;-58
2022/02/18 03:16:31;;;;;;;0.83;0.71;;;;;;;;;;362842;145;856078;-58
2022/02/18 03:17:32;;;;;;;0.59;0.59;;;;;;;;;;364046;146;863707;-59
2022/02/18 03:18:34;;;;;;;2.89;1.06;;;;;;;;;;362355;145;857733;-59
2022/02/18 03:19:35;;;;;;;3.14;1.26;;;;;;;;;;362005;146;863730;-59
2022/02/18 03:20:37;;;;;;;1.81;0.94;;;;;;;;;;363398;147;856188;-59
2022/02/18 03:21:38;;;;;;;1.66;1.19;;;;;;;;;;360103;145;856348;-58
2022/02/18 03:22:40;;;;;;;1.19;0.89;;;;;;;;;;362316;145;864721;-59
2022/02/18 03:23:46;;;;;;;3.11;1.75;;;;;;;;;;363378;145;857022;-59
2022/02/18 03:24:47;;;;;;;3.18;1.54;;;;;;;;;;364180;147;856162;-59
2022/02/18 03:25:49;;;;;;;1.63;1.21;;;;;;;;;;364725;145;856103;-58
2022/02/18 03:26:51;;;;;;;1.54;1.08;;;;;;;;;;362593;145;856055;-59
2022/02/18 03:27:52;;;;;;;1.45;1.09;;;;;;;;;;365238;145;857281;-58
2022/02/18 03:28:54;;;;;;;1.96;1.24;;;;;;;;;;360789;145;856838;-58
2022/02/18 03:34:13;;;;;;;1.83;1.00;;;;;;;3.01;76.84;97935.32;375322;141;881288;-57
2022/02/18 03:35:15;;;;;;;1.36;0.74;;;;;;;2.90;76.75;97942.25;356394;150;857149;-58
2022/02/18 03:36:18;;;;;;;0.65;0.65;;;;;;;2.89;76.83;97945.66;366974;144;857218;-57
2022/02/18 03:37:20;;;;;;;1.28;0.87;;;;;;;2.85;76.53;97944.00;368320;144;857151;-57
2022/02/18 03:38:21;;;;;;;0.80;0.59;;;;;;;2.87;76.63;97944.83;369104;144;857064;-58
2022/02/18 03:39:23;;;;;;;0.89;0.51;;;;;;;2.89;76.78;97951.64;367913;144;858177;-57
2022/02/18 03:40:26;;;;;;;1.62;0.60;;;;;;;2.96;76.74;97951.58;365587;144;865537;-57
2022/02/18 03:41:30;;;;;;;0.41;0.40;;;;;;;3.00;76.37;97951.52;368601;144;864823;-57
2022/02/18 03:42:31;;;;;;;1.12;0.67;;;;;;;3.06;76.24;97956.58;370506;144;863802;-58
2022/02/18 03:43:33;;;;;;;2.48;1.49;;;;;;;3.16;76.22;97964.16;367645;144;863753;-59
2022/02/18 03:44:35;;;;;;;1.86;0.87;;;;;;;3.25;76.02;97960.67;366120;144;864246;-58
2022/02/18 03:45:37;;;;;;;0.82;0.71;;;;;;;3.34;75.58;97955.45;367046;144;855963;-59
2022/02/18 03:46:39;;;;;;;2.70;0.51;;;;;;;3.40;75.58;97965.63;367898;144;863998;-59
2022/02/18 03:47:40;;;;;;;0.94;0.66;;;;;;;3.46;75.44;97959.60;367942;144;863723;-59
2022/02/18 03:48:42;;;;;;;1.34;0.86;;;;;;;3.48;74.92;97963.83;367576;144;863696;-59
2022/02/18 03:49:44;;;;;;;0.88;0.51;;;;;;;3.57;74.73;97962.02;366132;144;863547;-59
2022/02/18 03:50:45;;;;;;;1.98;1.11;;;;;;;3.65;74.62;97965.34;366866;144;863915;-59
2022/02/18 03:51:47;;;;;;;2.33;1.18;;;;;;;3.68;73.73;97970.41;367848;144;863912;-59
2022/02/18 03:52:51;;;;;;;0.99;0.76;;;;;;;3.72;73.97;97974.66;365454;144;863680;-58
2022/02/18 03:53:53;;;;;;;1.03;0.66;;;;;;;3.73;73.22;97970.38;363277;146;863679;-59
2022/02/18 03:54:54;;;;;;;1.06;0.63;;;;;;;3.76;73.02;97971.20;362566;146;863705;-58
2022/02/18 03:55:59;;;;;;;0.94;0.53;;;;;;;3.78;72.84;97971.16;364858;147;863561;-59
2022/02/18 03:57:00;;;;;;;0.88;0.64;;;;;;;3.82;73.00;97977.94;361032;146;863951;-58
2022/02/18 03:58:02;;;;;;;1.06;0.69;;;;;;;3.88;72.87;97977.86;362621;146;864567;-59
2022/02/18 03:59:03;;;;;;;1.33;0.58;;;;;;;3.91;72.27;97988.06;361204;147;864051;-58
2022/02/18 04:00:07;;;;;;;1.25;0.60;;;;;;;3.97;72.08;97988.85;364673;147;856548;-57
2022/02/18 04:01:09;;;;;;;1.13;0.72;;;;;;;3.99;72.35;97980.30;362917;146;856491;-58
2022/02/18 04:02:11;;;;;;;2.40;1.61;;;;;;;4.03;72.04;97989.64;362969;147;864040;-59
2022/02/18 04:03:13;;;;;;;3.06;1.76;;;;;;;4.04;72.05;97988.77;363765;147;856471;-58
2022/02/18 04:04:14;;;;;;;2.11;1.34;;;;;;;4.05;71.72;97993.02;362429;146;863371;-59
2022/02/18 04:05:16;;;;;;;1.89;1.05;;;;;;;4.11;71.81;97997.20;364277;147;863759;-57
2022/02/18 04:06:19;;;;;;;1.11;0.71;;;;;;;4.17;71.41;97991.16;361402;147;863804;-58
2022/02/18 04:07:21;;;;;;;3.05;1.17;;;;;;;4.22;71.35;97995.34;362219;146;856200;-58
2022/02/18 04:08:22;;;;;;;2.19;0.90;;;;;;;4.23;70.70;97991.91;361390;146;863654;-58
2022/02/18 04:09:24;;;;;;;1.10;0.73;;;;;;;4.29;70.97;97990.16;363575;147;863604;-57
2022/02/18 04:10:26;;;;;;;2.37;1.30;;;;;;;4.35;70.99;97990.91;362313;147;863901;-58
2022/02/18 04:11:28;;;;;;;1.76;0.87;;;;;;;4.41;70.37;97992.55;363204;146;857377;-58
2022/02/18 04:12:30;;;;;;;1.21;0.56;;;;;;;;;;363506;147;864256;-58
2022/02/18 04:13:31;;;;;;;0.89;0.63;;;;;;;;;;360245;147;863759;-58
2022/02/18 04:14:33;;;;;;;1.78;0.89;;;;;;;;;;361815;146;856327;-59
2022/02/18 04:15:34;;;;;;;1.61;0.81;;;;;;;;;;362383;147;856080;-57
2022/02/18 04:16:36;;;;;;;1.30;0.82;;;;;;;;;;359120;147;856109;-58
2022/02/18 04:17:37;;;;;;;1.23;0.59;;;;;;;;;;360270;147;856681;-58
2022/02/18 04:18:40;;;;;;;0.68;0.50;;;;;;;;;;363720;146;856105;-58
2022/02/18 04:19:41;;;;;;;0.78;0.61;;;;;;;;;;361064;146;856767;-57
2022/02/18 04:20:43;;;;;;;1.29;0.50;;;;;;;;;;362826;147;863803;-57
2022/02/18 04:21:45;;;;;;;0.94;0.73;;;;;;;;;;364255;146;856326;-59
2022/02/18 04:22:46;;;;;;;1.34;0.66;;;;;;;;;;360927;146;856077;-58
2022/02/18 04:23:48;;;;;;;1.57;0.71;;;;;;;;;;361123;147;856180;-58
2022/02/18 04:24:49;;;;;;;3.19;0.68;;;;;;;;;;362427;146;856027;-57
2022/02/18 04:25:51;;;;;;;1.04;0.80;;;;;;;;;;363125;147;856131;-57
2022/02/18 04:26:52;;;;;;;1.60;0.70;;;;;;;;;;362288;146;855987;-58
2022/02/18 04:27:59;;;;;;;0.93;0.62;;;;;;;;;;363106;147;856478;-56
2022/02/18 04:29:00;;;;;;;0.84;0.84;;;;;;;;;;360858;146;863680;-57
2022/02/18 04:30:02;;;;;;;0.59;0.59;;;;;;;;;;364086;146;856711;-57
2022/02/18 04:31:04;;;;;;;0.69;0.60;;;;;;;;;;362406;147;863837;-58
2022/02/18 04:32:06;;;;;;;2.16;0.81;;;;;;;;;;361544;146;856392;-58
2022/02/18 04:33:07;;;;;;;1.86;0.87;;;;;;;;;;360912;146;856997;-56
2022/02/18 04:34:09;;;;;;;3.44;0.88;;;;;;;;;;362007;147;856181;-57
2022/02/18 04:35:11;;;;;;;2.55;0.90;;;;;;;;;;363865;146;857831;-57
2022/02/18 04:36:13;;;;;;;1.19;0.91;;;;;;;;;;360488;146;856318;-57
2022/02/18 04:37:15;;;;;;;1.21;0.72;;;;;;;;;;360606;147;856207;-57
2022/02/18 04:38:16;;;;;;;1.18;0.85;;;;;;;;;;346593;153;864193;-55
2022/02/18 04:39:18;;;;;;;1.09;0.87;;;;;;;;;;362754;146;863717;-56
2022/02/18 04:40:19;;;;;;;1.24;0.82;;;;;;;;;;363358;146;856074;-56
2022/02/18 04:41:23;;;;;;;2.87;0.99;;;;;;;;;;361575;147;856425;-56
2022/02/18 04:42:24;;;;;;;2.21;1.06;;;;;;;;;;360855;146;864118;-57
2022/02/18 04:43:26;;;;;;;1.13;0.79;;;;;;;;;;362599;146;856396;-55
2022/02/18 04:44:28;;;;;;;1.59;1.01;;;;;;;;;;359657;147;863935;-56
2022/02/18 04:45:30;;;;;;;1.14;1.05;;;;;;;;;;362130;147;856732;-57
2022/02/18 04:46:31;;;;;;;5.27;1.09;;;;;;;;;;363019;146;859006;-58
2022/02/18 04:47:33;;;;;;;2.27;1.05;;;;;;;;;;362243;147;855993;-57
2022/02/18 04:48:35;;;;;;;1.70;0.96;;;;;;;;;;362792;147;863755;-57
2022/02/18 04:49:36;;;;;;;1.54;1.06;;;;;;;;;;360878;146;864360;-57
2022/02/18 04:50:38;;;;;;;2.28;1.01;;;;;;;;;;361641;146;863842;-57
2022/02/18 04:51:39;;;;;;;1.41;1.01;;;;;;;;;;361258;147;863759;-56
2022/02/18 04:52:41;;;;;;;3.04;1.18;;;;;;;;;;359781;147;856093;-57
2022/02/18 04:53:42;;;;;;;3.12;1.20;;;;;;;;;;363483;146;864588;-56
2022/02/18 04:54:44;;;;;;;2.08;1.15;;;;;;;;;;361957;147;857188;-57
2022/02/18 04:55:45;;;;;;;2.56;1.26;;;;;;;;;;363017;147;857189;-57
2022/02/18 04:56:47;;;;;;;1.61;1.19;;;;;;;;;;361485;146;859197;-57
2022/02/18 04:57:48;;;;;;;1.98;0.97;;;;;;;;;;360808;146;857842;-57
2022/02/18 04:58:50;;;;;;;1.33;0.98;;;;;;;;;;362981;147;856283;-57
2022/02/18 04:59:52;;;;;;;1.42;1.09;;;;;;;;;;362935;146;864038;-57
2022/02/18 05:00:53;;;;;;;2.24;1.06;;;;;;;;;;362704;146;856103;-57
2022/02/18 05:01:55;;;;;;;1.69;1.02;;;;;;;;;;363477;147;856363;-57
2022/02/18 05:02:57;;;;;;;1.37;1.01;;;;;;;;;;362649;146;856447;-57
2022/02/18 05:03:58;;;;;;;1.11;0.88;;;;;;;;;;362826;146;857189;-56
2022/02/18 05:05:01;;;;;;;1.71;1.02;;;;;;;;;;359928;146;856909;-56
2022/02/18 05:06:03;;;;;;;1.70;1.11;;;;;;;;;;362384;147;857513;-56
2022/02/18 05:07:05;;;;;;;1.30;1.04;;;;;;;;;;362996;146;856227;-56
2022/02/18 05:08:06;;;;;;;1.11;0.90;;;;;;;;;;364872;146;863937;-56
2022/02/18 05:09:08;;;;;;;1.44;1.09;;;;;;;;;;364329;147;864012;-56
2022/02/18 05:10:10;;;;;;;1.89;1.10;;;;;;;;;;362736;147;857328;-56
2022/02/18 05:11:12;;;;;;;3.11;1.07;;;;;;;;;;361084;146;856613;-58
2022/02/18 05:12:14;;;;;;;1.59;0.94;;;;;;;;;;361663;147;863781;-55
2022/02/18 05:13:15;;;;;;;1.89;1.10;;;;;;;;;;364132;147;856315;-55
2022/02/18 05:14:17;;;;;;;1.66;1.17;;;;;;;;;;362313;146;856279;-55
2022/02/18 05:15:19;;;;;;;1.85;0.97;;;;;;;;;;362442;146;856041;-56
2022/02/18 05:16:21;;;;;;;1.65;0.99;;;;;;;;;;361664;147;864266;-57
2022/02/18 05:17:22;;;;;;;1.84;0.92;;;;;;;;;;364537;147;856801;-55
2022/02/18 05:18:24;;;;;;;2.41;1.16;;;;;;;;;;362796;146;856959;-59
2022/02/18 05:19:25;;;;;;;1.08;0.96;;;;;;;;;;363224;146;856574;-55
2022/02/18 05:20:27;;;;;;;1.24;0.99;;;;;;;;;;361579;145;863882;-56
2022/02/18 05:21:30;;;;;;;1.91;1.10;;;;;;;;;;362695;146;863812;-58
2022/02/18 05:22:31;;;;;;;1.16;0.91;;;;;;;;;;362334;146;856126;-57
2022/02/18 05:23:33;;;;;;;1.52;0.96;;;;;;;;;;362125;146;856428;-55
2022/02/18 05:24:34;;;;;;;1.49;1.19;;;;;;;;;;361905;147;856622;-55
2022/02/18 05:25:36;;;;;;;2.46;0.94;;;;;;;;;;362242;146;856584;-54
2022/02/18 05:26:38;;;;;;;1.47;0.98;;;;;;;;;;361198;147;856810;-55
2022/02/18 05:27:40;;;;;;;2.30;1.07;;;;;;;;;;362799;147;856565;-56
2022/02/18 05:28:41;;;;;;;1.51;1.07;;;;;;;;;;363881;147;856120;-55
2022/02/18 05:29:43;;;;;;;2.84;0.82;;;;;;;;;;362396;146;856220;-54
2022/02/18 05:30:45;;;;;;;2.26;1.13;;;;;;;;;;362457;146;863797;-55
2022/02/18 05:31:47;;;;;;;1.80;1.04;;;;;;;;;;360766;146;865691;-56
2022/02/18 05:32:48;;;;;;;1.68;1.05;;;;;;;;;;364102;146;863941;-55
2022/02/18 05:33:50;;;;;;;1.56;1.06;;;;;;;;;;361840;145;863744;-55
2022/02/18 05:34:51;;;;;;;1.88;1.09;;;;;;;;;;363085;147;864122;-55
2022/02/18 05:35:54;;;;;;;2.52;1.13;;;;;;;;;;362836;147;863747;-55
2022/02/18 05:36:55;;;;;;;1.95;1.13;;;;;;;;;;361552;146;856703;-55
2022/02/18 05:37:57;;;;;;;2.59;1.03;;;;;;;;;;364764;147;863679;-56
2022/02/18 05:38:59;;;;;;;1.29;0.96;;;;;;;;;;363883;147;857431;-55
2022/02/18 05:40:00;;;;;;;1.89;1.07;;;;;;;;;;362207;146;864055;-56
2022/02/18 05:41:02;;;;;;;2.20;1.04;;;;;;;;;;361801;146;857328;-57
2022/02/18 05:42:03;;;;;;;2.26;1.00;;;;;;;;;;363770;146;856823;-57
2022/02/18 05:43:05;;;;;;;1.74;1.09;;;;;;;;;;361395;146;856701;-58
2022/02/18 05:44:07;;;;;;;1.72;1.15;;;;;;;;;;363366;147;864481;-56
2022/02/18 05:45:08;;;;;;;2.54;1.04;;;;;;;;;;362152;147;863895;-56
2022/02/18 05:46:11;;;;;;;1.76;1.13;;;;;;;;;;361346;147;856330;-59
2022/02/18 05:47:12;;;;;;;3.66;1.99;;;;;;;;;;362899;146;856289;-59
2022/02/18 05:48:14;;;;;;;2.18;1.72;;;;;;;;;;361691;147;856571;-59
2022/02/18 05:49:15;;;;;;;3.54;2.14;;;;;;;;;;360806;147;856175;-58
2022/02/18 05:50:17;;;;;;;7.27;4.05;;;;;;;;;;360760;146;856644;-58
2022/02/18 05:51:19;;;;;;;10.50;5.97;;;;;;;;;;361737;146;856787;-60
2022/02/18 05:52:20;;;;;;;11.41;6.93;;;;;;;;;;361887;147;863939;-57
2022/02/18 05:53:22;;;;;;;9.56;6.16;;;;;;;;;;362838;147;856541;-56
2022/02/18 05:54:23;;;;;;;7.53;4.57;;;;;;;;;;363106;146;864266;-58
2022/02/18 05:55:25;;;;;;;6.76;4.22;;;;;;;;;;361410;146;856618;-58
2022/02/18 05:56:28;;;;;;;3.43;2.29;;;;;;;;;;361158;147;856367;-59
2022/02/18 05:57:29;;;;;;;5.26;3.48;;;;;;;;;;363499;146;863672;-58
2022/02/18 05:58:32;;;;;;;5.11;2.60;;;;;;;;;;362191;146;860834;-62
2022/02/18 05:59:34;;;;;;;6.06;3.15;;;;;;;;;;361938;147;863798;-60
2022/02/18 06:00:35;;;;;;;4.86;2.73;;;;;;;;;;361107;147;863778;-60
2022/02/18 06:01:42;;;;;;;3.31;2.11;;;;;;;;;;362134;146;856095;-60
2022/02/18 06:02:41;;;;;;;2.59;1.81;;;;;;;;;;361040;146;858465;-59
2022/02/18 06:03:42;;;;;;;3.85;1.82;;;;;;;;;;362568;146;856421;-59
2022/02/18 06:04:44;;;;;;;3.13;1.35;;;;;;;;;;363072;146;856014;-64
2022/02/18 06:05:45;;;;;;;2.54;1.44;;;;;;;;;;362396;146;856148;-60
2022/02/18 06:06:47;;;;;;;1.88;1.34;;;;;;;;;;361270;147;856090;-60
2022/02/18 06:07:49;;;;;;;3.82;1.45;;;;;;;;;;362325;146;863760;-60
2022/02/18 06:08:50;;;;;;;2.66;1.48;;;;;;;;;;361616;146;863454;-63
2022/02/18 06:09:52;;;;;;;2.01;1.24;;;;;;;;;;363409;147;856218;-64
2022/02/18 06:10:53;;;;;;;1.33;1.01;;;;;;;;;;362551;147;856270;-65
2022/02/18 06:11:55;;;;;;;1.99;1.14;;;;;;;;;;362088;147;862057;-61